Geelong Airport


Codes: YGLG/GEX
Name: Geelong Airport
City:
Country: Australia
Elevation: 43 ft.
Wikipedia:

Photos at Geelong Airport


   Photos courtesy of SpottingLog. You can add your own sightings and photos by signing up for a free trial today.



No photos found.

Weather at Geelong Airport


Time (UTC)DescriptionTempratureWindCloud coverageVisibilityPressureHumidity
19-Apr-2024 03:00Light Rain16°C16 mph, SE45%10000m1020hPa79%
19-Apr-2024 06:00Light Rain16°C11 mph, S51%10000m1021hPa75%
19-Apr-2024 09:00Broken Clouds15°C11 mph, SE82%10000m1025hPa69%
19-Apr-2024 12:00Broken Clouds12°C4 mph, S74%10000m1028hPa80%
19-Apr-2024 15:00Few Clouds11°C4 mph, SE18%10000m1028hPa82%
19-Apr-2024 18:00Few Clouds11°C4 mph, S23%10000m1028hPa83%
19-Apr-2024 21:00Few Clouds10°C4 mph, S19%10000m1029hPa86%
20-Apr-2024 00:00Few Clouds16°C7 mph, SE15%10000m1030hPa61%
20-Apr-2024 03:00Few Clouds17°C7 mph, S14%10000m1029hPa54%
20-Apr-2024 06:00Clear Sky16°C9 mph, S10%10000m1029hPa61%
20-Apr-2024 09:00Clear Sky11°C4 mph, S0%10000m1030hPa84%
20-Apr-2024 12:00Clear Sky10°C2 mph, SW0%10000m1030hPa89%
20-Apr-2024 15:00Scattered Clouds9°C4 mph, W37%10000m1030hPa93%
20-Apr-2024 18:00Scattered Clouds8°C4 mph, W38%10000m1029hPa94%
20-Apr-2024 21:00Scattered Clouds7°C4 mph, W44%10000m1030hPa94%
21-Apr-2024 00:00Broken Clouds14°C2 mph, W57%10000m1030hPa64%
21-Apr-2024 03:00Broken Clouds18°C4 mph, S70%10000m1029hPa50%
21-Apr-2024 06:00Scattered Clouds17°C7 mph, SE41%10000m1028hPa59%
21-Apr-2024 09:00Few Clouds11°C2 mph, SE11%10000m1029hPa87%
21-Apr-2024 12:00Clear Sky10°C2 mph, S7%10000m1029hPa91%
21-Apr-2024 15:00Clear Sky10°C2 mph, NW2%10000m1027hPa92%
21-Apr-2024 18:00Clear Sky9°C2 mph, NW1%10000m1026hPa95%
21-Apr-2024 21:00Clear Sky8°C2 mph, N2%10000m1026hPa96%
22-Apr-2024 00:00Clear Sky15°C4 mph, NW5%10000m1025hPa56%
22-Apr-2024 03:00Clear Sky22°C9 mph, NW4%10000m1023hPa28%
22-Apr-2024 06:00Clear Sky22°C7 mph, NW2%10000m1021hPa28%
22-Apr-2024 09:00Clear Sky14°C2 mph, W0%10000m1021hPa48%
22-Apr-2024 12:00Clear Sky13°C4 mph, NW0%10000m1021hPa49%
22-Apr-2024 15:00Scattered Clouds12°C4 mph, NW40%10000m1019hPa42%
22-Apr-2024 18:00Scattered Clouds11°C4 mph, NW45%10000m1018hPa43%
22-Apr-2024 21:00Broken Clouds11°C4 mph, N63%10000m1018hPa48%
23-Apr-2024 00:00Broken Clouds19°C9 mph, N81%10000m1016hPa37%
23-Apr-2024 03:00Overcast Clouds23°C13 mph, N95%10000m1013hPa29%
23-Apr-2024 06:00Overcast Clouds22°C11 mph, N97%10000m1010hPa36%
23-Apr-2024 09:00Overcast Clouds18°C7 mph, N100%10000m1008hPa41%
23-Apr-2024 12:00Light Rain10°C13 mph, NW98%4050m1013hPa90%
23-Apr-2024 15:00Light Rain11°C16 mph, W77%10000m1013hPa77%
23-Apr-2024 18:00Broken Clouds11°C16 mph, W58%10000m1014hPa59%
23-Apr-2024 21:00Overcast Clouds10°C13 mph, W100%10000m1016hPa68%
24-Apr-2024 00:00Overcast Clouds12°C13 mph, W100%10000m1018hPa65%